sensor_id;sensor_type;location;lat;lon;timestamp;pressure;altitude;pressure_sealevel;temperature;humidity
6942;BME280;3510;43.200;27.920;2022-11-20T00:01:27;100727.97;;;25.07;50.46
6942;BME280;3510;43.200;27.920;2022-11-20T00:03:55;100720.41;;;24.79;50.91
6942;BME280;3510;43.200;27.920;2022-11-20T00:06:24;100715.56;;;24.58;51.14
6942;BME280;3510;43.200;27.920;2022-11-20T00:08:53;100731.72;;;24.85;50.94
6942;BME280;3510;43.200;27.920;2022-11-20T00:11:22;100723.91;;;24.82;50.42
6942;BME280;3510;43.200;27.920;2022-11-20T00:13:51;100712.00;;;24.51;51.80
6942;BME280;3510;43.200;27.920;2022-11-20T00:16:22;100723.81;;;24.45;51.93
6942;BME280;3510;43.200;27.920;2022-11-20T00:18:49;100714.31;;;24.77;50.94
6942;BME280;3510;43.200;27.920;2022-11-20T00:21:18;100709.56;;;24.57;51.23
6942;BME280;3510;43.200;27.920;2022-11-20T00:23:45;100716.38;;;23.94;53.30
6942;BME280;3510;43.200;27.920;2022-11-20T00:26:13;100706.97;;;24.56;51.77
6942;BME280;3510;43.200;27.920;2022-11-20T00:28:41;100721.06;;;24.72;50.86
6942;BME280;3510;43.200;27.920;2022-11-20T00:31:09;100715.34;;;24.83;50.73
6942;BME280;3510;43.200;27.920;2022-11-20T00:33:38;100712.59;;;24.76;51.11
6942;BME280;3510;43.200;27.920;2022-11-20T00:36:07;100714.13;;;24.68;51.28
6942;BME280;3510;43.200;27.920;2022-11-20T00:38:34;100711.25;;;24.55;51.86
6942;BME280;3510;43.200;27.920;2022-11-20T00:41:04;100709.53;;;23.65;54.71
6942;BME280;3510;43.200;27.920;2022-11-20T00:43:31;100698.47;;;23.97;53.48
6942;BME280;3510;43.200;27.920;2022-11-20T00:45:58;100717.47;;;23.72;54.98
6942;BME280;3510;43.200;27.920;2022-11-20T00:48:26;100714.66;;;23.08;56.70
6942;BME280;3510;43.200;27.920;2022-11-20T00:50:55;100717.56;;;23.19;56.93
6942;BME280;3510;43.200;27.920;2022-11-20T00:53:22;100705.94;;;23.30;56.94
6942;BME280;3510;43.200;27.920;2022-11-20T00:55:53;100719.53;;;23.55;55.91
6942;BME280;3510;43.200;27.920;2022-11-20T00:58:21;100715.38;;;23.60;55.94
6942;BME280;3510;43.200;27.920;2022-11-20T01:00:48;100717.00;;;23.85;55.57
6942;BME280;3510;43.200;27.920;2022-11-20T01:03:16;100718.47;;;23.77;55.37
6942;BME280;3510;43.200;27.920;2022-11-20T01:05:43;100721.81;;;24.66;53.44
6942;BME280;3510;43.200;27.920;2022-11-20T01:08:11;100708.16;;;24.37;54.18
6942;BME280;3510;43.200;27.920;2022-11-20T01:10:38;100719.94;;;24.95;52.18
6942;BME280;3510;43.200;27.920;2022-11-20T01:13:05;100704.00;;;25.10;52.04
6942;BME280;3510;43.200;27.920;2022-11-20T01:15:50;100700.13;;;23.95;55.08
6942;BME280;3510;43.200;27.920;2022-11-20T01:18:16;100716.25;;;25.20;51.38
6942;BME280;3510;43.200;27.920;2022-11-20T01:20:43;100720.66;;;25.24;52.23
6942;BME280;3510;43.200;27.920;2022-11-20T01:23:12;100686.41;;;25.69;50.42
6942;BME280;3510;43.200;27.920;2022-11-20T01:25:39;100716.97;;;25.92;49.87
6942;BME280;3510;43.200;27.920;2022-11-20T01:28:06;100715.06;;;25.44;51.32
6942;BME280;3510;43.200;27.920;2022-11-20T01:30:33;100719.06;;;26.10;49.36
6942;BME280;3510;43.200;27.920;2022-11-20T01:33:00;100697.38;;;25.21;51.48
6942;BME280;3510;43.200;27.920;2022-11-20T01:35:27;100714.91;;;25.77;49.68
6942;BME280;3510;43.200;27.920;2022-11-20T01:37:54;100706.25;;;26.14;48.94
6942;BME280;3510;43.200;27.920;2022-11-20T01:40:22;100702.84;;;25.74;49.90
6942;BME280;3510;43.200;27.920;2022-11-20T01:42:57;100707.94;;;25.71;49.76
6942;BME280;3510;43.200;27.920;2022-11-20T01:46:12;100701.75;;;25.63;50.15
6942;BME280;3510;43.200;27.920;2022-11-20T01:48:44;100695.28;;;25.41;50.89
6942;BME280;3510;43.200;27.920;2022-11-20T01:51:16;100683.34;;;25.46;50.61
6942;BME280;3510;43.200;27.920;2022-11-20T01:53:45;100682.81;;;24.85;52.28
6942;BME280;3510;43.200;27.920;2022-11-20T01:56:14;100687.00;;;25.56;50.57
6942;BME280;3510;43.200;27.920;2022-11-20T01:58:45;100695.97;;;25.75;50.25
6942;BME280;3510;43.200;27.920;2022-11-20T02:01:14;100691.00;;;25.81;49.92
6942;BME280;3510;43.200;27.920;2022-11-20T02:03:41;100686.13;;;25.96;50.20
6942;BME280;3510;43.200;27.920;2022-11-20T02:06:14;100683.00;;;26.13;49.90
6942;BME280;3510;43.200;27.920;2022-11-20T02:08:43;100688.13;;;26.11;49.29
6942;BME280;3510;43.200;27.920;2022-11-20T02:11:10;100696.41;;;26.40;49.10
6942;BME280;3510;43.200;27.920;2022-11-20T02:13:39;100683.28;;;26.28;49.00
6942;BME280;3510;43.200;27.920;2022-11-20T02:16:10;100681.28;;;27.12;46.67
6942;BME280;3510;43.200;27.920;2022-11-20T02:18:38;100694.09;;;27.69;45.63
6942;BME280;3510;43.200;27.920;2022-11-20T02:21:09;100686.75;;;27.33;46.49
6942;BME280;3510;43.200;27.920;2022-11-20T02:23:39;100680.91;;;27.48;45.78
6942;BME280;3510;43.200;27.920;2022-11-20T02:26:13;100663.44;;;27.32;46.06
6942;BME280;3510;43.200;27.920;2022-11-20T02:28:42;100677.19;;;27.27;46.12
6942;BME280;3510;43.200;27.920;2022-11-20T02:31:09;100678.84;;;27.24;46.30
6942;BME280;3510;43.200;27.920;2022-11-20T02:33:36;100674.75;;;26.82;47.21
6942;BME280;3510;43.200;27.920;2022-11-20T02:36:03;100681.06;;;26.46;48.33
6942;BME280;3510;43.200;27.920;2022-11-20T02:38:31;100690.25;;;26.82;47.57
6942;BME280;3510;43.200;27.920;2022-11-20T02:40:58;100686.63;;;26.24;49.05
6942;BME280;3510;43.200;27.920;2022-11-20T02:43:26;100680.34;;;26.55;48.07
6942;BME280;3510;43.200;27.920;2022-11-20T02:45:53;100678.50;;;27.01;46.96
6942;BME280;3510;43.200;27.920;2022-11-20T02:48:20;100663.38;;;27.25;46.08
6942;BME280;3510;43.200;27.920;2022-11-20T02:50:47;100672.19;;;26.82;47.45
6942;BME280;3510;43.200;27.920;2022-11-20T02:53:14;100668.25;;;26.52;47.98
6942;BME280;3510;43.200;27.920;2022-11-20T02:55:41;100661.00;;;27.42;46.25
6942;BME280;3510;43.200;27.920;2022-11-20T02:58:08;100654.53;;;27.75;45.48
6942;BME280;3510;43.200;27.920;2022-11-20T03:00:36;100657.91;;;27.71;45.17
6942;BME280;3510;43.200;27.920;2022-11-20T03:03:03;100671.25;;;27.36;46.18
6942;BME280;3510;43.200;27.920;2022-11-20T03:05:30;100676.19;;;26.18;48.68
6942;BME280;3510;43.200;27.920;2022-11-20T03:07:57;100668.66;;;25.83;49.62
6942;BME280;3510;43.200;27.920;2022-11-20T03:10:24;100673.41;;;25.63;50.51
6942;BME280;3510;43.200;27.920;2022-11-20T03:12:53;100669.59;;;25.46;50.92
6942;BME280;3510;43.200;27.920;2022-11-20T03:15:21;100671.59;;;26.00;49.52
6942;BME280;3510;43.200;27.920;2022-11-20T03:17:52;100663.94;;;26.06;49.07
6942;BME280;3510;43.200;27.920;2022-11-20T03:20:19;100647.97;;;27.33;46.40
6942;BME280;3510;43.200;27.920;2022-11-20T03:22:46;100638.97;;;27.08;46.44
6942;BME280;3510;43.200;27.920;2022-11-20T03:25:13;100658.50;;;26.89;46.65
6942;BME280;3510;43.200;27.920;2022-11-20T03:27:40;100645.25;;;27.22;46.25
6942;BME280;3510;43.200;27.920;2022-11-20T03:30:13;100634.91;;;27.24;46.10
6942;BME280;3510;43.200;27.920;2022-11-20T03:32:40;100639.53;;;27.48;45.32
6942;BME280;3510;43.200;27.920;2022-11-20T03:35:09;100633.16;;;27.21;46.01
6942;BME280;3510;43.200;27.920;2022-11-20T03:37:36;100626.25;;;27.20;46.06
6942;BME280;3510;43.200;27.920;2022-11-20T03:40:04;100632.19;;;27.13;45.80
6942;BME280;3510;43.200;27.920;2022-11-20T03:42:31;100631.47;;;27.23;45.85
6942;BME280;3510;43.200;27.920;2022-11-20T03:45:14;100637.44;;;26.63;46.84
6942;BME280;3510;43.200;27.920;2022-11-20T03:47:41;100641.97;;;26.26;48.09
6942;BME280;3510;43.200;27.920;2022-11-20T03:50:12;100646.81;;;26.57;47.56
6942;BME280;3510;43.200;27.920;2022-11-20T03:52:40;100645.34;;;26.22;48.31
6942;BME280;3510;43.200;27.920;2022-11-20T03:55:08;100637.91;;;26.92;46.60
6942;BME280;3510;43.200;27.920;2022-11-20T03:57:35;100640.75;;;27.11;46.05
6942;BME280;3510;43.200;27.920;2022-11-20T04:00:03;100636.19;;;26.94;46.46
6942;BME280;3510;43.200;27.920;2022-11-20T04:02:30;100623.00;;;27.35;45.27
6942;BME280;3510;43.200;27.920;2022-11-20T04:04:57;100623.66;;;27.20;45.75
6942;BME280;3510;43.200;27.920;2022-11-20T04:07:25;100623.06;;;26.81;46.63
6942;BME280;3510;43.200;27.920;2022-11-20T04:09:52;100616.69;;;27.13;45.96
6942;BME280;3510;43.200;27.920;2022-11-20T04:12:19;100616.88;;;27.27;45.36
6942;BME280;3510;43.200;27.920;2022-11-20T04:14:46;100615.59;;;26.99;45.78
6942;BME280;3510;43.200;27.920;2022-11-20T04:17:13;100630.13;;;26.39;47.63
6942;BME280;3510;43.200;27.920;2022-11-20T04:19:40;100629.50;;;26.51;47.06
6942;BME280;3510;43.200;27.920;2022-11-20T04:22:07;100617.66;;;26.65;46.68
6942;BME280;3510;43.200;27.920;2022-11-20T04:24:35;100618.94;;;27.57;44.82
6942;BME280;3510;43.200;27.920;2022-11-20T04:27:02;100622.69;;;27.12;45.40
6942;BME280;3510;43.200;27.920;2022-11-20T04:29:29;100610.66;;;26.55;46.78
6942;BME280;3510;43.200;27.920;2022-11-20T04:31:56;100605.09;;;26.88;45.70
6942;BME280;3510;43.200;27.920;2022-11-20T04:34:23;100612.84;;;26.87;46.00
6942;BME280;3510;43.200;27.920;2022-11-20T04:36:50;100609.59;;;27.67;44.26
6942;BME280;3510;43.200;27.920;2022-11-20T04:39:17;100613.38;;;26.66;46.40
6942;BME280;3510;43.200;27.920;2022-11-20T04:41:45;100613.41;;;26.67;46.44
6942;BME280;3510;43.200;27.920;2022-11-20T04:44:12;100607.59;;;26.82;45.79
6942;BME280;3510;43.200;27.920;2022-11-20T04:46:41;100626.53;;;26.81;45.86
6942;BME280;3510;43.200;27.920;2022-11-20T04:49:08;100606.38;;;26.57;46.72
6942;BME280;3510;43.200;27.920;2022-11-20T04:51:35;100604.31;;;27.58;44.33
6942;BME280;3510;43.200;27.920;2022-11-20T04:54:02;100607.72;;;27.54;44.44
6942;BME280;3510;43.200;27.920;2022-11-20T04:56:29;100607.53;;;27.37;44.48
6942;BME280;3510;43.200;27.920;2022-11-20T04:59:01;100600.13;;;27.69;43.99
6942;BME280;3510;43.200;27.920;2022-11-20T05:01:28;100610.69;;;27.86;43.23
6942;BME280;3510;43.200;27.920;2022-11-20T05:03:55;100615.47;;;26.91;45.23
6942;BME280;3510;43.200;27.920;2022-11-20T05:06:22;100618.22;;;27.02;45.46
6942;BME280;3510;43.200;27.920;2022-11-20T05:08:49;100616.69;;;26.57;45.84
6942;BME280;3510;43.200;27.920;2022-11-20T05:11:18;100622.75;;;26.59;46.01
6942;BME280;3510;43.200;27.920;2022-11-20T05:13:46;100611.41;;;27.07;45.15
6942;BME280;3510;43.200;27.920;2022-11-20T05:16:16;100611.16;;;27.53;43.99
6942;BME280;3510;43.200;27.920;2022-11-20T05:18:43;100610.50;;;27.05;44.99
6942;BME280;3510;43.200;27.920;2022-11-20T05:21:12;100592.31;;;26.99;44.68
6942;BME280;3510;43.200;27.920;2022-11-20T05:23:39;100591.69;;;27.14;44.79
6942;BME280;3510;43.200;27.920;2022-11-20T05:26:08;100597.50;;;27.66;43.72
6942;BME280;3510;43.200;27.920;2022-11-20T05:28:38;100597.63;;;26.49;45.92
6942;BME280;3510;43.200;27.920;2022-11-20T05:31:07;100601.75;;;27.62;43.85
6942;BME280;3510;43.200;27.920;2022-11-20T05:33:35;100614.09;;;27.13;44.77
6942;BME280;3510;43.200;27.920;2022-11-20T05:36:03;100606.63;;;26.74;45.76
6942;BME280;3510;43.200;27.920;2022-11-20T05:38:31;100628.56;;;27.67;43.58
6942;BME280;3510;43.200;27.920;2022-11-20T05:41:03;100613.69;;;26.87;44.95
6942;BME280;3510;43.200;27.920;2022-11-20T05:43:32;100617.19;;;26.89;45.39
6942;BME280;3510;43.200;27.920;2022-11-20T05:45:59;100621.03;;;27.16;44.55
6942;BME280;3510;43.200;27.920;2022-11-20T05:48:26;100638.66;;;26.35;46.21
6942;BME280;3510;43.200;27.920;2022-11-20T05:50:56;100620.19;;;26.59;45.48
6942;BME280;3510;43.200;27.920;2022-11-20T05:53:23;100647.91;;;26.71;45.59
6942;BME280;3510;43.200;27.920;2022-11-20T05:55:56;100646.06;;;26.15;46.24
6942;BME280;3510;43.200;27.920;2022-11-20T05:58:24;100645.41;;;26.27;46.30
6942;BME280;3510;43.200;27.920;2022-11-20T06:00:51;100636.88;;;27.42;44.02
6942;BME280;3510;43.200;27.920;2022-11-20T06:03:18;100634.50;;;27.60;43.52
6942;BME280;3510;43.200;27.920;2022-11-20T06:05:46;100634.91;;;27.94;42.97
6942;BME280;3510;43.200;27.920;2022-11-20T06:08:14;100618.44;;;27.17;44.10
6942;BME280;3510;43.200;27.920;2022-11-20T06:10:41;100642.47;;;27.77;43.08
6942;BME280;3510;43.200;27.920;2022-11-20T06:13:08;100641.34;;;28.34;42.13
6942;BME280;3510;43.200;27.920;2022-11-20T06:15:35;100653.06;;;26.72;45.14
6942;BME280;3510;43.200;27.920;2022-11-20T06:18:03;100649.03;;;26.90;45.09
6942;BME280;3510;43.200;27.920;2022-11-20T06:20:30;100653.59;;;25.61;47.77
6942;BME280;3510;43.200;27.920;2022-11-20T06:22:57;100625.34;;;27.15;44.65
6942;BME280;3510;43.200;27.920;2022-11-20T06:25:25;100637.38;;;27.82;42.69
6942;BME280;3510;43.200;27.920;2022-11-20T06:27:52;100654.25;;;28.30;41.99
6942;BME280;3510;43.200;27.920;2022-11-20T06:30:20;100645.00;;;28.56;41.57
6942;BME280;3510;43.200;27.920;2022-11-20T06:32:47;100641.25;;;28.22;42.08
6942;BME280;3510;43.200;27.920;2022-11-20T06:35:14;100648.88;;;28.08;42.46
6942;BME280;3510;43.200;27.920;2022-11-20T06:37:44;100648.41;;;28.51;41.55
6942;BME280;3510;43.200;27.920;2022-11-20T06:40:12;100645.44;;;28.12;42.24
6942;BME280;3510;43.200;27.920;2022-11-20T06:42:40;100637.75;;;28.18;42.21
6942;BME280;3510;43.200;27.920;2022-11-20T06:45:11;100641.41;;;28.37;42.06
6942;BME280;3510;43.200;27.920;2022-11-20T06:47:38;100637.09;;;28.38;41.76
6942;BME280;3510;43.200;27.920;2022-11-20T06:50:05;100651.59;;;28.23;41.91
6942;BME280;3510;43.200;27.920;2022-11-20T06:52:33;100654.88;;;28.06;42.65
6942;BME280;3510;43.200;27.920;2022-11-20T06:55:00;100652.25;;;29.00;40.65
6942;BME280;3510;43.200;27.920;2022-11-20T06:57:27;100646.31;;;28.11;41.95
6942;BME280;3510;43.200;27.920;2022-11-20T06:59:55;100636.34;;;28.54;41.19
6942;BME280;3510;43.200;27.920;2022-11-20T07:02:22;100642.09;;;26.86;44.85
6942;BME280;3510;43.200;27.920;2022-11-20T07:04:49;100647.06;;;27.33;43.97
6942;BME280;3510;43.200;27.920;2022-11-20T07:07:16;100645.50;;;27.41;43.33
6942;BME280;3510;43.200;27.920;2022-11-20T07:09:43;100648.81;;;28.05;42.69
6942;BME280;3510;43.200;27.920;2022-11-20T07:12:10;100649.88;;;28.22;42.44
6942;BME280;3510;43.200;27.920;2022-11-20T07:14:37;100651.38;;;28.01;42.59
6942;BME280;3510;43.200;27.920;2022-11-20T07:17:06;100635.16;;;26.83;44.82
6942;BME280;3510;43.200;27.920;2022-11-20T07:19:33;100650.38;;;26.65;45.53
6942;BME280;3510;43.200;27.920;2022-11-20T07:22:00;100645.00;;;27.09;44.40
6942;BME280;3510;43.200;27.920;2022-11-20T07:24:27;100645.75;;;27.65;43.65
6942;BME280;3510;43.200;27.920;2022-11-20T07:26:54;100645.06;;;27.76;43.29
6942;BME280;3510;43.200;27.920;2022-11-20T07:29:21;100640.88;;;27.18;44.35
6942;BME280;3510;43.200;27.920;2022-11-20T07:31:48;100631.66;;;27.39;43.89
6942;BME280;3510;43.200;27.920;2022-11-20T07:34:16;100641.84;;;27.96;43.02
6942;BME280;3510;43.200;27.920;2022-11-20T07:36:43;100619.84;;;28.41;42.02
6942;BME280;3510;43.200;27.920;2022-11-20T07:39:10;100650.19;;;28.58;41.58
6942;BME280;3510;43.200;27.920;2022-11-20T07:41:37;100647.00;;;27.95;42.92
6942;BME280;3510;43.200;27.920;2022-11-20T07:44:04;100639.03;;;28.65;41.78
6942;BME280;3510;43.200;27.920;2022-11-20T07:46:31;100638.91;;;28.51;41.49
6942;BME280;3510;43.200;27.920;2022-11-20T07:48:58;100642.41;;;27.71;43.22
6942;BME280;3510;43.200;27.920;2022-11-20T07:51:27;100636.34;;;27.70;43.71
6942;BME280;3510;43.200;27.920;2022-11-20T07:53:54;100635.16;;;28.21;42.54
6942;BME280;3510;43.200;27.920;2022-11-20T07:56:21;100633.03;;;27.78;43.47
6942;BME280;3510;43.200;27.920;2022-11-20T07:58:48;100642.00;;;28.13;42.62
6942;BME280;3510;43.200;27.920;2022-11-20T08:01:15;100647.75;;;28.79;41.53
6942;BME280;3510;43.200;27.920;2022-11-20T08:03:42;100643.34;;;28.64;41.58
6942;BME280;3510;43.200;27.920;2022-11-20T08:06:09;100635.63;;;28.70;41.14
6942;BME280;3510;43.200;27.920;2022-11-20T08:08:38;100646.78;;;28.63;41.65
6942;BME280;3510;43.200;27.920;2022-11-20T08:11:06;100648.31;;;28.38;41.95
6942;BME280;3510;43.200;27.920;2022-11-20T08:13:50;100629.81;;;29.05;40.77
6942;BME280;3510;43.200;27.920;2022-11-20T08:16:35;100619.31;;;28.85;41.06
6942;BME280;3510;43.200;27.920;2022-11-20T08:19:02;100651.19;;;28.77;41.39
6942;BME280;3510;43.200;27.920;2022-11-20T08:21:30;100647.22;;;29.29;40.16
6942;BME280;3510;43.200;27.920;2022-11-20T08:23:58;100647.44;;;29.80;39.78
6942;BME280;3510;43.200;27.920;2022-11-20T08:26:25;100634.72;;;28.70;40.89
6942;BME280;3510;43.200;27.920;2022-11-20T08:28:53;100632.44;;;29.10;40.66
6942;BME280;3510;43.200;27.920;2022-11-20T08:31:21;100620.41;;;28.10;42.46
6942;BME280;3510;43.200;27.920;2022-11-20T08:33:49;100650.84;;;28.34;42.29
6942;BME280;3510;43.200;27.920;2022-11-20T08:36:16;100640.81;;;28.77;41.34
6942;BME280;3510;43.200;27.920;2022-11-20T08:38:47;100641.06;;;29.06;40.95
6942;BME280;3510;43.200;27.920;2022-11-20T08:41:16;100636.63;;;28.95;40.80
6942;BME280;3510;43.200;27.920;2022-11-20T08:43:56;100632.69;;;29.62;39.81
6942;BME280;3510;43.200;27.920;2022-11-20T08:46:25;100619.44;;;29.05;40.68
6942;BME280;3510;43.200;27.920;2022-11-20T08:48:52;100613.78;;;28.38;41.91
6942;BME280;3510;43.200;27.920;2022-11-20T08:51:20;100629.06;;;29.26;40.49
6942;BME280;3510;43.200;27.920;2022-11-20T08:53:47;100628.03;;;28.98;40.45
6942;BME280;3510;43.200;27.920;2022-11-20T08:56:17;100630.03;;;29.48;39.74
6942;BME280;3510;43.200;27.920;2022-11-20T08:58:45;100633.03;;;28.72;40.74
6942;BME280;3510;43.200;27.920;2022-11-20T09:01:13;100618.59;;;29.05;40.53
6942;BME280;3510;43.200;27.920;2022-11-20T09:03:39;100636.06;;;29.47;40.08
6942;BME280;3510;43.200;27.920;2022-11-20T09:06:07;100628.41;;;29.81;38.82
6942;BME280;3510;43.200;27.920;2022-11-20T09:08:34;100625.69;;;29.47;39.55
6942;BME280;3510;43.200;27.920;2022-11-20T09:11:03;100615.75;;;28.71;41.06
6942;BME280;3510;43.200;27.920;2022-11-20T09:13:34;100608.97;;;28.90;40.65
6942;BME280;3510;43.200;27.920;2022-11-20T09:16:03;100608.72;;;28.52;41.35
6942;BME280;3510;43.200;27.920;2022-11-20T09:18:31;100603.44;;;28.39;41.69
6942;BME280;3510;43.200;27.920;2022-11-20T09:20:59;100614.06;;;28.76;40.97
6942;BME280;3510;43.200;27.920;2022-11-20T09:23:27;100607.97;;;28.69;41.33
6942;BME280;3510;43.200;27.920;2022-11-20T09:25:57;100602.25;;;29.24;40.35
6942;BME280;3510;43.200;27.920;2022-11-20T09:28:25;100603.00;;;29.03;40.49
6942;BME280;3510;43.200;27.920;2022-11-20T09:30:53;100601.69;;;28.38;41.68
6942;BME280;3510;43.200;27.920;2022-11-20T09:33:20;100597.03;;;29.16;40.40
6942;BME280;3510;43.200;27.920;2022-11-20T09:35:47;100593.34;;;28.81;40.64
6942;BME280;3510;43.200;27.920;2022-11-20T09:38:14;100594.03;;;28.52;41.21
6942;BME280;3510;43.200;27.920;2022-11-20T09:40:46;100593.88;;;28.34;41.45
6942;BME280;3510;43.200;27.920;2022-11-20T09:43:19;100581.22;;;28.74;40.87
6942;BME280;3510;43.200;27.920;2022-11-20T09:45:56;100587.03;;;28.37;41.47
6942;BME280;3510;43.200;27.920;2022-11-20T09:48:34;100585.47;;;27.66;42.94
6942;BME280;3510;43.200;27.920;2022-11-20T09:51:11;100575.97;;;27.67;42.69
6942;BME280;3510;43.200;27.920;2022-11-20T09:53:52;100561.91;;;27.43;43.31
6942;BME280;3510;43.200;27.920;2022-11-20T09:56:23;100579.72;;;27.93;42.24
6942;BME280;3510;43.200;27.920;2022-11-20T09:58:52;100571.91;;;27.89;42.27
6942;BME280;3510;43.200;27.920;2022-11-20T10:01:26;100551.72;;;28.50;41.32
6942;BME280;3510;43.200;27.920;2022-11-20T10:03:56;100566.59;;;28.85;40.63
6942;BME280;3510;43.200;27.920;2022-11-20T10:06:30;100565.91;;;29.09;40.17
6942;BME280;3510;43.200;27.920;2022-11-20T10:09:08;100564.34;;;28.12;41.59
6942;BME280;3510;43.200;27.920;2022-11-20T10:11:48;100557.13;;;27.76;42.53
6942;BME280;3510;43.200;27.920;2022-11-20T10:14:26;100547.06;;;28.08;41.89
6942;BME280;3510;43.200;27.920;2022-11-20T10:17:03;100532.91;;;27.73;42.36
6942;BME280;3510;43.200;27.920;2022-11-20T10:19:52;100544.06;;;27.66;42.42
6942;BME280;3510;43.200;27.920;2022-11-20T10:22:38;100538.28;;;27.90;41.99
6942;BME280;3510;43.200;27.920;2022-11-20T10:25:14;100533.66;;;27.60;42.44
6942;BME280;3510;43.200;27.920;2022-11-20T10:28:16;100533.41;;;28.29;41.38
6942;BME280;3510;43.200;27.920;2022-11-20T10:30:55;100526.63;;;28.38;41.15
6942;BME280;3510;43.200;27.920;2022-11-20T10:33:27;100518.19;;;28.72;40.45
6942;BME280;3510;43.200;27.920;2022-11-20T10:36:05;100528.22;;;28.22;41.29
6942;BME280;3510;43.200;27.920;2022-11-20T10:38:38;100515.97;;;28.06;41.44
6942;BME280;3510;43.200;27.920;2022-11-20T10:41:16;100521.81;;;29.04;39.81
6942;BME280;3510;43.200;27.920;2022-11-20T10:43:54;100521.56;;;28.58;40.75
6942;BME280;3510;43.200;27.920;2022-11-20T10:46:23;100520.59;;;28.44;40.83
6942;BME280;3510;43.200;27.920;2022-11-20T10:48:53;100525.56;;;28.18;41.44
6942;BME280;3510;43.200;27.920;2022-11-20T10:51:31;100514.88;;;28.99;40.16
6942;BME280;3510;43.200;27.920;2022-11-20T10:54:15;100521.63;;;28.69;40.74
6942;BME280;3510;43.200;27.920;2022-11-20T10:56:47;100521.69;;;28.80;40.34
6942;BME280;3510;43.200;27.920;2022-11-20T10:59:44;100515.03;;;29.45;39.01
6942;BME280;3510;43.200;27.920;2022-11-20T11:02:18;100510.28;;;28.50;40.42
6942;BME280;3510;43.200;27.920;2022-11-20T11:04:48;100517.19;;;28.48;40.72
6942;BME280;3510;43.200;27.920;2022-11-20T11:07:19;100521.25;;;28.15;41.13
6942;BME280;3510;43.200;27.920;2022-11-20T11:09:49;100514.34;;;28.17;41.26
6942;BME280;3510;43.200;27.920;2022-11-20T11:12:16;100501.88;;;28.89;39.73
6942;BME280;3510;43.200;27.920;2022-11-20T11:14:45;100513.78;;;28.58;40.34
6942;BME280;3510;43.200;27.920;2022-11-20T11:17:22;100518.00;;;28.44;40.61
6942;BME280;3510;43.200;27.920;2022-11-20T11:20:04;100516.91;;;28.13;41.44
6942;BME280;3510;43.200;27.920;2022-11-20T11:22:33;100522.31;;;28.37;40.98
6942;BME280;3510;43.200;27.920;2022-11-20T11:25:01;100518.84;;;28.38;40.68
6942;BME280;3510;43.200;27.920;2022-11-20T11:27:28;100522.72;;;29.15;39.26
6942;BME280;3510;43.200;27.920;2022-11-20T11:30:13;100516.34;;;28.49;40.56
6942;BME280;3510;43.200;27.920;2022-11-20T11:32:40;100524.81;;;28.33;40.80
6942;BME280;3510;43.200;27.920;2022-11-20T11:35:23;100522.31;;;28.42;40.48
6942;BME280;3510;43.200;27.920;2022-11-20T11:37:51;100527.91;;;27.86;41.79
6942;BME280;3510;43.200;27.920;2022-11-20T11:40:20;100516.91;;;28.11;41.01
6942;BME280;3510;43.200;27.920;2022-11-20T11:42:53;100533.88;;;28.96;39.31
6942;BME280;3510;43.200;27.920;2022-11-20T11:45:21;100532.78;;;28.59;40.37
6942;BME280;3510;43.200;27.920;2022-11-20T11:47:47;100537.56;;;28.10;41.07
6942;BME280;3510;43.200;27.920;2022-11-20T11:50:21;100545.63;;;27.50;42.34
6942;BME280;3510;43.200;27.920;2022-11-20T11:53:07;100538.47;;;27.26;42.78
6942;BME280;3510;43.200;27.920;2022-11-20T11:55:38;100543.00;;;27.47;42.31
6942;BME280;3510;43.200;27.920;2022-11-20T11:58:14;100543.59;;;27.25;42.78
6942;BME280;3510;43.200;27.920;2022-11-20T12:00:51;100545.25;;;27.96;41.63
6942;BME280;3510;43.200;27.920;2022-11-20T12:03:27;100555.78;;;28.19;40.93
6942;BME280;3510;43.200;27.920;2022-11-20T12:05:58;100567.56;;;27.88;41.63
6942;BME280;3510;43.200;27.920;2022-11-20T12:08:31;100559.88;;;27.92;41.69
6942;BME280;3510;43.200;27.920;2022-11-20T12:11:04;100550.38;;;27.94;41.64
6942;BME280;3510;43.200;27.920;2022-11-20T12:13:41;100557.50;;;28.21;41.01
6942;BME280;3510;43.200;27.920;2022-11-20T12:16:12;100537.91;;;28.48;40.72
6942;BME280;3510;43.200;27.920;2022-11-20T12:18:41;100549.22;;;27.63;41.44
6942;BME280;3510;43.200;27.920;2022-11-20T12:21:19;100531.69;;;28.28;40.81
6942;BME280;3510;43.200;27.920;2022-11-20T12:27:01;100530.25;;;27.63;42.07
6942;BME280;3510;43.200;27.920;2022-11-20T12:29:39;100528.97;;;28.14;41.21
6942;BME280;3510;43.200;27.920;2022-11-20T12:32:32;100528.84;;;27.92;41.45
6942;BME280;3510;43.200;27.920;2022-11-20T12:35:05;100524.03;;;28.38;41.08
6942;BME280;3510;43.200;27.920;2022-11-20T12:37:45;100519.66;;;28.36;40.56
6942;BME280;3510;43.200;27.920;2022-11-20T12:40:24;100516.31;;;28.46;40.65
6942;BME280;3510;43.200;27.920;2022-11-20T12:43:02;100512.00;;;28.45;40.36
6942;BME280;3510;43.200;27.920;2022-11-20T12:49:02;100496.19;;;28.13;41.01
6942;BME280;3510;43.200;27.920;2022-11-20T12:52:05;100522.91;;;28.07;41.42
6942;BME280;3510;43.200;27.920;2022-11-20T12:57:44;100526.38;;;28.08;41.15
6942;BME280;3510;43.200;27.920;2022-11-20T13:00:16;100533.69;;;28.65;39.95
6942;BME280;3510;43.200;27.920;2022-11-20T13:03:13;100538.09;;;28.82;39.88
6942;BME280;3510;43.200;27.920;2022-11-20T13:05:52;100543.56;;;29.49;38.30
6942;BME280;3510;43.200;27.920;2022-11-20T13:08:23;100544.44;;;29.54;38.33
6942;BME280;3510;43.200;27.920;2022-11-20T13:10:56;100529.50;;;28.90;39.52
6942;BME280;3510;43.200;27.920;2022-11-20T13:13:33;100540.03;;;29.29;38.75
6942;BME280;3510;43.200;27.920;2022-11-20T13:16:22;100544.34;;;29.19;38.65
6942;BME280;3510;43.200;27.920;2022-11-20T13:18:51;100545.53;;;28.30;40.45
6942;BME280;3510;43.200;27.920;2022-11-20T13:21:20;100534.38;;;28.40;40.39
6942;BME280;3510;43.200;27.920;2022-11-20T13:23:48;100539.19;;;29.36;38.63
6942;BME280;3510;43.200;27.920;2022-11-20T13:26:18;100534.59;;;28.75;39.49